createdAt,value
2023-05-23T00:02:13.294Z,10.60
2023-05-23T00:04:43.147Z,10.33
2023-05-23T00:07:10.577Z,11.53
2023-05-23T00:09:37.817Z,10.07
2023-05-23T00:12:07.635Z,10.00
2023-05-23T00:14:40.291Z,9.53
2023-05-23T00:17:10.740Z,9.47
2023-05-23T00:19:41.628Z,9.70
2023-05-23T00:22:09.613Z,10.80
2023-05-23T00:24:38.825Z,10.10
2023-05-23T00:27:05.965Z,10.90
2023-05-23T00:29:35.243Z,10.60
2023-05-23T00:32:04.652Z,10.30
2023-05-23T00:34:31.697Z,10.93
2023-05-23T00:36:58.764Z,10.90
2023-05-23T00:39:26.997Z,11.17
2023-05-23T00:41:54.081Z,11.67
2023-05-23T00:44:22.072Z,11.50
2023-05-23T00:46:58.958Z,12.00
2023-05-23T00:49:28.617Z,11.73
2023-05-23T00:51:56.011Z,12.83
2023-05-23T00:54:31.274Z,12.10
2023-05-23T00:57:00.926Z,12.30
2023-05-23T00:59:30.483Z,11.77
2023-05-23T01:02:00.346Z,12.27
2023-05-23T01:04:29.590Z,11.73
2023-05-23T01:07:00.812Z,12.90
2023-05-23T01:09:29.271Z,13.70
2023-05-23T01:12:23.829Z,12.33
2023-05-23T01:15:11.058Z,12.43
2023-05-23T01:18:16.619Z,12.50
2023-05-23T01:20:52.878Z,13.60
2023-05-23T01:23:59.452Z,12.87
2023-05-23T01:26:54.292Z,13.80
2023-05-23T01:29:34.790Z,13.70
2023-05-23T01:32:04.805Z,12.50
2023-05-23T01:34:37.482Z,13.50
2023-05-23T01:37:14.820Z,13.33
2023-05-23T01:39:45.408Z,12.27
2023-05-23T01:42:13.483Z,14.13
2023-05-23T01:44:41.042Z,13.47
2023-05-23T01:47:10.042Z,12.43
2023-05-23T01:49:37.933Z,12.50
2023-05-23T01:52:05.902Z,13.40
2023-05-23T01:54:35.665Z,14.33
2023-05-23T01:57:05.887Z,14.77
2023-05-23T01:59:38.566Z,15.13
2023-05-23T02:02:05.961Z,14.73
2023-05-23T02:04:33.208Z,15.80
2023-05-23T02:07:00.310Z,15.73
2023-05-23T02:09:27.246Z,13.70
2023-05-23T02:11:54.347Z,16.17
2023-05-23T02:14:21.837Z,16.60
2023-05-23T02:16:53.998Z,15.47
2023-05-23T02:19:25.673Z,17.13
2023-05-23T02:21:57.455Z,16.30
2023-05-23T02:24:24.462Z,16.50
2023-05-23T02:26:52.602Z,20.53
2023-05-23T02:29:19.813Z,20.50
2023-05-23T02:31:49.271Z,22.40
2023-05-23T02:34:17.611Z,23.20
2023-05-23T02:36:44.654Z,23.37
2023-05-23T02:39:14.376Z,26.30
2023-05-23T02:41:41.619Z,29.27
2023-05-23T02:44:08.691Z,32.77
2023-05-23T02:46:35.776Z,31.93
2023-05-23T02:49:02.885Z,34.00
2023-05-23T02:51:29.819Z,34.47
2023-05-23T02:53:56.785Z,35.27
2023-05-23T02:56:23.795Z,35.77
2023-05-23T02:58:51.103Z,35.50
2023-05-23T03:01:18.847Z,36.37
2023-05-23T03:03:49.577Z,35.30
2023-05-23T03:06:17.165Z,36.13
2023-05-23T03:08:44.820Z,38.00
2023-05-23T03:11:11.866Z,35.50
2023-05-23T03:13:38.993Z,36.87
2023-05-23T03:16:06.454Z,37.03
2023-05-23T03:18:33.610Z,39.00
2023-05-23T03:21:00.624Z,38.00
2023-05-23T03:23:27.613Z,36.27
2023-05-23T03:25:54.603Z,39.33
2023-05-23T03:28:21.711Z,37.17
2023-05-23T03:30:48.726Z,37.60
2023-05-23T03:33:16.027Z,37.57
2023-05-23T03:35:44.702Z,37.10
2023-05-23T03:38:11.730Z,37.60
2023-05-23T03:40:38.797Z,39.97
2023-05-23T03:43:07.436Z,39.10
2023-05-23T03:45:37.941Z,38.53
2023-05-23T03:48:05.153Z,39.87
2023-05-23T03:50:32.290Z,40.80
2023-05-23T03:52:59.483Z,39.07
2023-05-23T03:55:34.571Z,38.17
2023-05-23T03:58:01.819Z,37.60
2023-05-23T04:00:31.138Z,37.73
2023-05-23T04:02:58.569Z,37.07
2023-05-23T04:05:26.430Z,38.67
2023-05-23T04:07:53.779Z,36.90
2023-05-23T04:10:20.863Z,38.93
2023-05-23T04:12:48.243Z,38.90
2023-05-23T04:15:15.506Z,37.60
2023-05-23T04:17:43.944Z,39.77
2023-05-23T04:20:13.597Z,36.90
2023-05-23T04:22:41.342Z,35.70
2023-05-23T04:25:09.556Z,35.10
2023-05-23T04:27:42.186Z,33.87
2023-05-23T04:30:10.183Z,34.80
2023-05-23T04:32:40.938Z,34.00
2023-05-23T04:35:13.611Z,31.50
2023-05-23T04:37:42.608Z,30.80
2023-05-23T04:40:13.588Z,30.70
2023-05-23T04:42:44.697Z,31.33
2023-05-23T04:45:15.377Z,27.90
2023-05-23T04:47:47.789Z,27.83
2023-05-23T04:50:18.466Z,29.40
2023-05-23T04:52:47.858Z,29.13
2023-05-23T04:55:14.936Z,27.20
2023-05-23T04:57:41.847Z,26.73
2023-05-23T05:00:12.849Z,26.77
2023-05-23T05:02:41.852Z,26.53
2023-05-23T05:05:09.549Z,26.07
2023-05-23T05:07:39.289Z,26.67
2023-05-23T05:10:16.949Z,24.57
2023-05-23T05:12:51.059Z,24.93
2023-05-23T05:15:19.545Z,24.80
2023-05-23T05:17:49.733Z,24.23
2023-05-23T05:20:19.536Z,22.23
2023-05-23T05:22:49.727Z,22.07
2023-05-23T05:25:19.088Z,22.83
2023-05-23T05:27:46.168Z,22.30
2023-05-23T05:30:13.915Z,21.67
2023-05-23T05:32:42.221Z,21.43
2023-05-23T05:35:10.137Z,22.13
2023-05-23T05:37:41.792Z,21.43
2023-05-23T05:40:10.017Z,22.53
2023-05-23T05:42:39.283Z,22.30
2023-05-23T05:45:11.512Z,22.47
2023-05-23T05:47:38.885Z,21.67
2023-05-23T05:50:08.823Z,20.97
2023-05-23T05:52:38.838Z,21.50
2023-05-23T05:55:11.502Z,22.30
2023-05-23T05:57:40.041Z,21.47
2023-05-23T06:00:14.804Z,21.67
2023-05-23T06:02:43.211Z,24.37
2023-05-23T06:05:17.019Z,23.10
2023-05-23T06:07:51.749Z,24.90
2023-05-23T06:10:21.383Z,24.87
2023-05-23T06:12:48.681Z,23.87
2023-05-23T06:15:16.217Z,25.33
2023-05-23T06:17:44.888Z,25.53
2023-05-23T06:20:12.459Z,25.13
2023-05-23T06:22:42.127Z,25.80
2023-05-23T06:25:09.441Z,23.13
2023-05-23T06:27:38.743Z,25.33
2023-05-23T06:30:06.773Z,25.07
2023-05-23T06:32:33.852Z,25.37
2023-05-23T06:35:00.801Z,24.87
2023-05-23T06:37:32.205Z,24.50
2023-05-23T06:39:59.244Z,26.67
2023-05-23T06:42:27.174Z,25.40
2023-05-23T06:44:54.178Z,27.57
2023-05-23T06:47:23.700Z,26.87
2023-05-23T06:49:50.778Z,26.97
2023-05-23T06:52:20.425Z,27.60
2023-05-23T06:54:51.148Z,26.40
2023-05-23T06:57:18.274Z,28.27
2023-05-23T06:59:47.585Z,28.60
2023-05-23T07:02:16.898Z,28.60
2023-05-23T07:04:49.575Z,27.13
2023-05-23T07:07:16.557Z,28.90
2023-05-23T07:09:43.607Z,30.10
2023-05-23T07:12:10.599Z,29.20
2023-05-23T07:14:40.606Z,29.70
2023-05-23T07:17:07.767Z,31.13
2023-05-23T07:19:37.004Z,27.83
2023-05-23T07:22:08.906Z,28.77
2023-05-23T07:24:37.232Z,29.47
2023-05-23T07:27:04.518Z,29.93
2023-05-23T07:29:33.644Z,30.27
2023-05-23T07:32:03.257Z,28.60
2023-05-23T07:34:30.764Z,29.43
2023-05-23T07:36:57.899Z,29.77
2023-05-23T07:39:25.786Z,29.70
2023-05-23T07:41:52.708Z,29.80
2023-05-23T07:44:24.858Z,29.00
2023-05-23T07:46:52.520Z,27.80
2023-05-23T07:49:21.768Z,29.03
2023-05-23T07:51:51.335Z,28.07
2023-05-23T07:54:18.354Z,31.70
2023-05-23T07:56:50.021Z,27.50
2023-05-23T07:59:19.555Z,28.73
2023-05-23T08:01:50.709Z,26.77
2023-05-23T08:04:18.646Z,26.87
2023-05-23T08:07:00.652Z,24.87
2023-05-23T08:09:31.645Z,24.23
2023-05-23T08:11:58.684Z,22.07
2023-05-23T08:14:38.771Z,21.60
2023-05-23T08:17:16.535Z,21.40
2023-05-23T08:19:46.185Z,18.40
2023-05-23T08:22:15.502Z,17.47
2023-05-23T08:24:42.524Z,18.47
2023-05-23T08:27:09.748Z,18.30
2023-05-23T08:29:37.322Z,18.10
2023-05-23T08:32:06.927Z,17.03
2023-05-23T08:34:38.541Z,18.97
2023-05-23T08:37:07.892Z,17.80
2023-05-23T08:39:42.084Z,16.17
2023-05-23T08:42:09.166Z,16.37
2023-05-23T08:44:38.726Z,15.93
2023-05-23T08:47:05.926Z,15.43
2023-05-23T08:49:35.810Z,15.30
2023-05-23T08:52:10.877Z,15.77
2023-05-23T08:54:42.161Z,14.63
2023-05-23T08:57:09.185Z,14.83
2023-05-23T08:59:38.850Z,12.87
2023-05-23T09:02:13.797Z,12.67
2023-05-23T09:04:43.153Z,12.50
2023-05-23T09:07:12.044Z,12.30
2023-05-23T09:09:39.492Z,12.03
2023-05-23T09:12:06.892Z,10.80
2023-05-23T09:14:34.033Z,11.43
2023-05-23T09:17:04.620Z,12.10
2023-05-23T09:19:32.254Z,10.60
2023-05-23T09:22:05.625Z,10.33
2023-05-23T09:24:38.905Z,9.07
2023-05-23T09:27:07.425Z,9.60
2023-05-23T09:29:41.596Z,8.80
2023-05-23T09:32:20.021Z,8.50
2023-05-23T09:35:05.751Z,8.00
2023-05-23T09:37:40.865Z,8.30
2023-05-23T09:40:14.486Z,7.70
2023-05-23T09:42:46.345Z,8.10
2023-05-23T09:45:15.489Z,7.40
2023-05-23T09:47:52.988Z,7.60
2023-05-23T09:50:23.645Z,7.53
2023-05-23T09:52:54.348Z,7.17
2023-05-23T09:55:25.972Z,7.37
2023-05-23T09:57:58.963Z,7.20
2023-05-23T10:00:27.271Z,7.07
2023-05-23T10:03:10.707Z,8.00
2023-05-23T10:05:52.844Z,6.97
2023-05-23T10:08:40.404Z,8.00
2023-05-23T10:11:35.637Z,8.50
2023-05-23T10:14:10.863Z,9.60
2023-05-23T10:17:07.010Z,11.30
2023-05-23T10:19:52.256Z,11.30
2023-05-23T10:22:20.068Z,10.60
2023-05-23T10:24:48.924Z,11.50
2023-05-23T10:27:16.132Z,12.97
2023-05-23T10:29:46.842Z,14.23
2023-05-23T10:32:15.110Z,13.40
2023-05-23T10:35:04.567Z,13.27
2023-05-23T10:38:00.081Z,11.57
2023-05-23T10:40:26.980Z,12.67
2023-05-23T10:43:08.173Z,12.50
2023-05-23T10:45:44.481Z,12.13
2023-05-23T10:48:36.407Z,12.20
2023-05-23T10:51:06.892Z,12.53
2023-05-23T10:53:40.059Z,9.40
2023-05-23T10:56:19.622Z,9.67
2023-05-23T10:58:46.710Z,9.23
2023-05-23T11:01:20.069Z,8.23
2023-05-23T11:03:48.186Z,8.53
2023-05-23T11:06:38.486Z,9.40
2023-05-23T11:09:27.788Z,9.50
2023-05-23T11:12:05.827Z,12.07
2023-05-23T11:14:33.792Z,10.07
2023-05-23T11:17:22.025Z,9.67
2023-05-23T11:20:13.420Z,9.30
2023-05-23T11:22:42.324Z,9.40
2023-05-23T11:25:10.392Z,10.30
2023-05-23T11:27:41.897Z,11.23
2023-05-23T11:30:15.899Z,10.40
2023-05-23T11:32:53.979Z,9.53
2023-05-23T11:35:23.860Z,10.20
2023-05-23T11:37:50.992Z,10.07
2023-05-23T11:40:28.228Z,9.40
2023-05-23T11:43:08.279Z,9.30
2023-05-23T11:45:37.858Z,9.13
2023-05-23T11:48:18.103Z,8.77
2023-05-23T11:50:49.372Z,7.90
2023-05-23T11:53:19.144Z,7.87
2023-05-23T11:56:00.818Z,8.60
2023-05-23T11:58:33.702Z,9.93
2023-05-23T12:01:09.726Z,8.30
2023-05-23T12:03:52.465Z,8.67
2023-05-23T12:06:20.144Z,8.40
2023-05-23T12:08:52.380Z,6.90
2023-05-23T12:11:19.399Z,7.80
2023-05-23T12:13:46.533Z,7.47
2023-05-23T12:16:16.710Z,6.40
2023-05-23T12:18:46.440Z,6.57
2023-05-23T12:21:13.454Z,7.30
2023-05-23T12:23:42.112Z,8.00
2023-05-23T12:26:10.324Z,7.27
2023-05-23T12:28:45.809Z,6.57
2023-05-23T12:31:21.410Z,6.83
2023-05-23T12:33:49.609Z,5.87
2023-05-23T12:36:24.364Z,6.73
2023-05-23T12:38:54.061Z,5.10
2023-05-23T12:41:22.178Z,5.20
2023-05-23T12:43:56.989Z,5.70
2023-05-23T12:46:29.442Z,5.97
2023-05-23T12:49:01.335Z,5.80
2023-05-23T12:51:30.960Z,5.30
2023-05-23T12:54:00.485Z,4.80
2023-05-23T12:56:27.593Z,6.70
2023-05-23T12:58:57.093Z,6.20
2023-05-23T13:01:24.509Z,6.00
2023-05-23T13:03:57.047Z,5.33
2023-05-23T13:06:26.644Z,6.57
2023-05-23T13:08:56.280Z,6.03
2023-05-23T13:11:23.310Z,5.80
2023-05-23T13:13:54.071Z,6.37
2023-05-23T13:16:21.250Z,5.93
2023-05-23T13:18:48.503Z,6.10
2023-05-23T13:21:18.296Z,5.53
2023-05-23T13:23:48.436Z,5.90
2023-05-23T13:26:15.655Z,5.53
2023-05-23T13:28:42.783Z,5.77
2023-05-23T13:31:09.984Z,6.20
2023-05-23T13:33:38.176Z,5.80
2023-05-23T13:36:05.678Z,5.97
2023-05-23T13:38:32.633Z,5.03
2023-05-23T13:40:59.776Z,5.37
2023-05-23T13:43:31.425Z,5.37
2023-05-23T13:46:02.813Z,6.10
2023-05-23T13:48:32.470Z,5.20
2023-05-23T13:50:59.621Z,6.37
2023-05-23T13:53:27.509Z,6.50
2023-05-23T13:55:54.895Z,5.60
2023-05-23T13:58:21.909Z,5.07
2023-05-23T14:00:48.942Z,5.90
2023-05-23T14:03:20.208Z,4.80
2023-05-23T14:05:49.672Z,5.60
2023-05-23T14:08:16.850Z,5.20
2023-05-23T14:10:44.100Z,5.80
2023-05-23T14:13:12.012Z,5.73
2023-05-23T14:15:42.651Z,5.40
2023-05-23T14:18:12.736Z,5.27
2023-05-23T14:20:39.909Z,5.53
2023-05-23T14:23:07.047Z,6.07
2023-05-23T14:25:34.119Z,5.10
2023-05-23T14:28:01.321Z,5.30
2023-05-23T14:30:28.338Z,5.10
2023-05-23T14:32:57.890Z,5.63
2023-05-23T14:35:26.290Z,5.53
2023-05-23T14:37:55.686Z,5.27
2023-05-23T14:40:24.934Z,4.90
2023-05-23T14:42:52.341Z,5.70
2023-05-23T14:45:22.434Z,5.23
2023-05-23T14:47:56.668Z,5.80
2023-05-23T14:50:23.659Z,5.70
2023-05-23T14:52:50.687Z,5.47
2023-05-23T14:55:17.771Z,5.90
2023-05-23T14:57:44.744Z,4.37
2023-05-23T15:00:13.337Z,5.80
2023-05-23T15:02:40.497Z,4.63
2023-05-23T15:05:08.716Z,4.30
2023-05-23T15:07:36.044Z,4.43
2023-05-23T15:10:04.122Z,4.80
2023-05-23T15:12:31.183Z,5.63
2023-05-23T15:15:03.540Z,5.10
2023-05-23T15:17:35.441Z,4.80
2023-05-23T15:20:04.438Z,4.20
2023-05-23T15:22:39.400Z,4.90
2023-05-23T15:25:08.384Z,5.00
2023-05-23T15:27:38.633Z,4.60
2023-05-23T15:30:06.730Z,4.13
2023-05-23T15:32:34.052Z,4.77
2023-05-23T15:35:01.095Z,3.97
2023-05-23T15:37:28.095Z,3.70
2023-05-23T15:39:57.065Z,4.50
2023-05-23T15:42:24.154Z,5.23
2023-05-23T15:44:51.241Z,4.30
2023-05-23T15:47:18.875Z,5.20
2023-05-23T15:49:45.953Z,4.80
2023-05-23T15:52:13.308Z,4.00
2023-05-23T15:54:40.563Z,4.27
2023-05-23T15:57:11.082Z,3.97
2023-05-23T15:59:41.566Z,4.80
2023-05-23T16:02:11.462Z,5.60
2023-05-23T16:04:44.058Z,4.57
2023-05-23T16:07:12.309Z,4.00
2023-05-23T16:10:00.871Z,4.40
2023-05-23T16:12:33.673Z,4.13
2023-05-23T16:15:13.880Z,4.50
2023-05-23T16:18:52.754Z,4.60
2023-05-23T16:21:24.791Z,4.30
2023-05-23T16:23:51.796Z,5.63
2023-05-23T16:26:19.321Z,4.47
2023-05-23T16:28:46.485Z,3.87
2023-05-23T16:31:21.604Z,4.00
2023-05-23T16:33:51.114Z,4.53
2023-05-23T16:36:22.031Z,4.40
2023-05-23T16:38:55.567Z,4.60
2023-05-23T16:41:23.094Z,4.73
2023-05-23T16:43:57.249Z,5.23
2023-05-23T16:46:24.424Z,5.07
2023-05-23T16:48:54.523Z,4.30
2023-05-23T16:51:21.790Z,4.40
2023-05-23T16:53:51.190Z,3.90
2023-05-23T16:56:18.266Z,3.73
2023-05-23T16:58:49.893Z,4.50
2023-05-23T17:01:19.954Z,4.67
2023-05-23T17:03:50.396Z,4.43
2023-05-23T17:06:24.163Z,4.03
2023-05-23T17:08:54.490Z,4.47
2023-05-23T17:11:21.886Z,3.77
2023-05-23T17:13:53.513Z,4.30
2023-05-23T17:16:20.917Z,4.37
2023-05-23T17:18:48.564Z,4.17
2023-05-23T17:21:15.795Z,5.03
2023-05-23T17:23:45.149Z,4.70
2023-05-23T17:26:12.229Z,4.20
2023-05-23T17:28:39.552Z,4.67
2023-05-23T17:31:08.943Z,5.03
2023-05-23T17:33:38.909Z,4.97
2023-05-23T17:36:11.470Z,4.80
2023-05-23T17:38:39.345Z,4.90
2023-05-23T17:41:09.283Z,4.67
2023-05-23T17:43:39.177Z,4.27
2023-05-23T17:46:08.572Z,4.57
2023-05-23T17:48:47.068Z,4.63
2023-05-23T17:51:15.967Z,4.17
2023-05-23T17:53:43.319Z,4.10
2023-05-23T17:56:10.919Z,5.00
2023-05-23T17:58:43.232Z,3.90
2023-05-23T18:01:14.510Z,3.57
2023-05-23T18:03:44.371Z,4.60
2023-05-23T18:06:11.685Z,4.17
2023-05-23T18:08:38.601Z,3.67
2023-05-23T18:11:08.924Z,4.27
2023-05-23T18:13:38.557Z,4.00
2023-05-23T18:16:07.986Z,3.97
2023-05-23T18:18:37.846Z,3.63
2023-05-23T18:21:08.645Z,4.20
2023-05-23T18:23:37.876Z,5.00
2023-05-23T18:26:05.036Z,4.40
2023-05-23T18:28:38.693Z,4.60
2023-05-23T18:31:05.734Z,3.50
2023-05-23T18:33:34.535Z,4.70
2023-05-23T18:36:04.303Z,3.90
2023-05-23T18:38:34.496Z,3.73
2023-05-23T18:41:01.666Z,4.50
2023-05-23T18:43:30.521Z,3.80
2023-05-23T18:45:58.172Z,4.27
2023-05-23T18:48:26.076Z,3.43
2023-05-23T18:50:53.909Z,4.97
2023-05-23T18:53:21.213Z,3.87
2023-05-23T18:55:48.217Z,4.67
2023-05-23T18:58:15.978Z,4.23
2023-05-23T19:00:44.905Z,5.47
2023-05-23T19:03:13.130Z,4.27
2023-05-23T19:05:42.973Z,3.70
2023-05-23T19:08:13.049Z,4.17
2023-05-23T19:10:42.321Z,3.93
2023-05-23T19:13:11.091Z,3.67
2023-05-23T19:15:38.718Z,4.97
2023-05-23T19:18:05.833Z,4.53
2023-05-23T19:20:33.281Z,4.03
2023-05-23T19:23:01.255Z,3.80
2023-05-23T19:25:28.472Z,3.93
2023-05-23T19:27:55.777Z,5.23
2023-05-23T19:30:25.382Z,4.37
2023-05-23T19:33:01.244Z,4.47
2023-05-23T19:35:31.439Z,3.77
2023-05-23T19:38:01.478Z,5.43
2023-05-23T19:40:28.685Z,4.47
2023-05-23T19:43:00.351Z,4.53
2023-05-23T19:45:28.662Z,3.97
2023-05-23T19:47:57.608Z,4.10
2023-05-23T19:50:26.854Z,3.90
2023-05-23T19:52:53.923Z,4.40
2023-05-23T19:55:23.329Z,4.60
2023-05-23T19:57:50.652Z,4.03
2023-05-23T20:00:18.352Z,5.67
2023-05-23T20:02:48.332Z,4.63
2023-05-23T20:05:18.831Z,4.20
2023-05-23T20:07:48.289Z,3.97
2023-05-23T20:10:18.254Z,4.50
2023-05-23T20:12:45.360Z,3.80
2023-05-23T20:15:12.359Z,4.27
2023-05-23T20:17:39.414Z,3.70
2023-05-23T20:20:07.641Z,3.63
2023-05-23T20:22:34.766Z,4.23
2023-05-23T20:25:07.807Z,4.53
2023-05-23T20:27:34.789Z,4.87
2023-05-23T20:30:01.943Z,5.00
2023-05-23T20:32:28.911Z,5.00
2023-05-23T20:35:01.050Z,5.17
2023-05-23T20:37:30.693Z,4.67
2023-05-23T20:39:58.082Z,4.63
2023-05-23T20:42:26.705Z,4.67
2023-05-23T20:44:56.936Z,4.80
2023-05-23T20:47:26.260Z,4.87
2023-05-23T20:49:56.183Z,4.23
2023-05-23T20:52:26.239Z,4.30
2023-05-23T20:54:55.846Z,4.40
2023-05-23T20:57:25.550Z,4.17
2023-05-23T20:59:59.771Z,4.10
2023-05-23T21:02:27.116Z,4.00
2023-05-23T21:04:56.605Z,4.97
2023-05-23T21:07:23.603Z,5.20
2023-05-23T21:09:52.993Z,4.83
2023-05-23T21:12:22.352Z,4.33
2023-05-23T21:14:54.130Z,4.90
2023-05-23T21:17:23.962Z,4.77
2023-05-23T21:19:51.369Z,5.07
2023-05-23T21:22:20.772Z,4.93
2023-05-23T21:24:52.653Z,5.83
2023-05-23T21:27:21.933Z,5.50
2023-05-23T21:29:48.884Z,5.03
2023-05-23T21:32:18.393Z,4.53
2023-05-23T21:34:49.953Z,5.67
2023-05-23T21:37:17.048Z,5.83
2023-05-23T21:39:52.096Z,5.93
2023-05-23T21:42:24.704Z,5.27
2023-05-23T21:44:51.779Z,5.47
2023-05-23T21:47:21.160Z,6.30
2023-05-23T21:49:48.158Z,5.07
2023-05-23T21:52:19.621Z,5.33
2023-05-23T21:54:51.744Z,6.30
2023-05-23T21:57:21.069Z,5.43
2023-05-23T21:59:50.649Z,6.33
2023-05-23T22:02:17.807Z,5.60
2023-05-23T22:04:46.133Z,6.30
2023-05-23T22:07:13.192Z,5.37
2023-05-23T22:09:44.622Z,5.77
2023-05-23T22:12:14.476Z,5.83
2023-05-23T22:14:41.548Z,6.20
2023-05-23T22:17:14.239Z,5.83
2023-05-23T22:19:41.894Z,4.67
2023-05-23T22:22:09.908Z,6.53
2023-05-23T22:24:36.901Z,5.70
2023-05-23T22:27:04.209Z,5.93
2023-05-23T22:29:31.303Z,5.53
2023-05-23T22:32:00.847Z,5.83
2023-05-23T22:34:30.410Z,6.43
2023-05-23T22:36:59.830Z,5.80
2023-05-23T22:39:27.609Z,5.13
2023-05-23T22:42:01.989Z,5.00
2023-05-23T22:44:34.045Z,6.33
2023-05-23T22:47:03.696Z,6.50
2023-05-23T22:49:32.997Z,6.07
2023-05-23T22:52:04.924Z,5.70
2023-05-23T22:54:34.089Z,5.83
2023-05-23T22:57:01.238Z,7.53
2023-05-23T22:59:30.004Z,6.00
2023-05-23T23:01:59.142Z,7.20
2023-05-23T23:04:30.781Z,6.40
2023-05-23T23:07:02.660Z,6.43
2023-05-23T23:09:29.677Z,5.90
2023-05-23T23:11:56.739Z,6.10
2023-05-23T23:14:26.742Z,6.33
2023-05-23T23:16:54.472Z,7.10
2023-05-23T23:19:22.064Z,6.00
2023-05-23T23:21:54.186Z,6.87
2023-05-23T23:24:24.104Z,5.43
2023-05-23T23:26:51.111Z,6.03
2023-05-23T23:29:20.326Z,6.17
2023-05-23T23:31:52.855Z,5.60
2023-05-23T23:34:19.848Z,6.30
2023-05-23T23:36:46.779Z,7.33
2023-05-23T23:39:13.796Z,6.57
2023-05-23T23:41:43.351Z,6.53
2023-05-23T23:44:13.005Z,7.50
2023-05-23T23:46:40.109Z,7.50
2023-05-23T23:49:09.212Z,7.00
2023-05-23T23:51:38.446Z,6.40
2023-05-23T23:54:05.536Z,7.20
2023-05-23T23:56:36.516Z,6.53
2023-05-23T23:59:06.122Z,6.90
